Forside
METAR-TAF:

METAR-TAF

Lufthavne :

Lansing Municipal Airport

Lansing, Illinois, USA

Breddekreds: 41-32-24N, længdekreds: 087-31-56W, højde: 188 m

Aktuelle vejr

Denne rapport blev lavet for 17 minutter siden, kl. 17:55 UTC
Vind stille
Temperatur 25°C
Fugtighed 47%
Tryk 1020 hPa
Sigt: 16.1 km
Overskyet i en højde af 5000 ft

METAR: KIGQ 031755Z AUTO 00000KT 10SM OVC050 25/13 A3011 RMK AO2 T02500130 10259 20164

Tid: 13:12 (18:12 UTC)


TAF: fraværende

Vejrobservationer og prognoser fra mere end 4000 lufthavne (METAR og TAF).

De gule og røde prikker repræsenterer de meteorologiske stationer.

Flyt musen over at se navnet på stationen.

Så klik over at se vejr observationer og prognoser.

At skifte det kort: Klik på de grønne knapper med et sort kors for at zoome ind; på den grønne knap med en bindestreg for at zoome ud; eller på de grønne pile for tilstødende kort.


METAR-TAF: